Hovedside
METAR-TAF:

METAR-TAF

Lufthavner :

Enontekis, Finland

Enontekiö lufthavn

breddegrad: 68-21-52N, lengdegrad: 023-25-39E, høyde over havet: 308 m

Gjeldene værobservasjon

Denne rapporten ble laget for 28 minutter siden, klokken 21:20 UTC
Vind 4 kt fra Sør, skiftende mellom Sørøst og Sør-sørvest
Temperatur 15°C
Luftfuktighet 67%
Trykk 1010 hPa
Sikt 10 km eller mer
ingen skyer under 1500 m og ingen bygeskyer

METAR: EFET 182120Z AUTO 17004KT 130V210 CAVOK 15/09 Q1010

Tid: 00:48 (21:48 UTC)


TAF: fraværende

Værobservasjoner og værvarsel for over 4000 flyplasser (METAR- og TAF-rapporter).

Tilgjengelige stasjoner er representert av de røde og gule prikkene på kartet.

Hold musepekeren over prikken for å se navnet på stasjonen.

Klikk så for å se værobservasjoner og -varsler.

For å forandre kartet kan du klikke på den grønne knappen med svart kryss for å zoome inn, på den grønne knappen med strek for å zoome ut, eller på de grønne pilene for å se tilstøtende kart.


METAR-TAF: